TimeCST,TemperatureF,Dew PointF,Humidity,Sea Level PressureIn,VisibilityMPH,Wind Direction,Wind SpeedMPH,Gust SpeedMPH,PrecipitationIn,Events,Conditions,WindDirDegrees,DateUTC
12:11 AM,60.8,55.4,82,29.98,5.0,Calm,Calm,-,N/A,,Haze,0,2012-12-08 06:11:00
12:23 AM,60.8,55.4,82,29.97,5.0,ENE,3.5,-,N/A,,Haze,60,2012-12-08 06:23:00
12:56 AM,60.1,55.9,86,29.93,5.0,ENE,3.5,-,N/A,,Clear,70,2012-12-08 06:56:00
1:56 AM,61.0,55.9,83,29.91,4.0,East,3.5,-,N/A,,Haze,90,2012-12-08 07:56:00
2:56 AM,61.0,57.0,87,29.91,4.0,Calm,Calm,-,N/A,,Overcast,0,2012-12-08 08:56:00
3:56 AM,63.0,57.9,84,29.91,5.0,Calm,Calm,-,0.00,Rain,Light Rain,0,2012-12-08 09:56:00
4:56 AM,63.0,57.9,84,29.92,6.0,ENE,3.5,-,0.00,,Haze,60,2012-12-08 10:56:00
5:56 AM,63.0,57.9,84,29.94,6.0,Calm,Calm,-,0.00,,Haze,0,2012-12-08 11:56:00
6:41 AM,62.6,57.2,82,29.99,2.0,ENE,3.5,-,0.00,Rain,Rain,60,2012-12-08 12:41:00
6:49 AM,62.6,57.2,82,30.00,1.5,Calm,Calm,-,0.01,Rain,Light Rain,0,2012-12-08 12:49:00
6:56 AM,63.0,59.0,87,29.96,1.2,Calm,Calm,-,0.01,Rain,Light Rain,0,2012-12-08 12:56:00
7:14 AM,62.6,60.8,94,30.00,1.5,Calm,Calm,-,0.02,Rain,Light Rain,0,2012-12-08 13:14:00
7:17 AM,62.6,60.8,94,30.00,2.0,Calm,Calm,-,0.02,Rain,Light Rain,0,2012-12-08 13:17:00
7:27 AM,62.6,60.8,94,30.01,3.0,Calm,Calm,-,0.02,,Overcast,0,2012-12-08 13:27:00
7:33 AM,62.6,60.8,94,30.01,3.0,Calm,Calm,-,0.02,,Overcast,0,2012-12-08 13:33:00
7:56 AM,64.0,60.1,87,29.96,4.0,SE,6.9,-,0.02,,Overcast,130,2012-12-08 13:56:00
8:04 AM,64.4,60.8,88,30.01,4.0,ESE,5.8,-,N/A,,Overcast,120,2012-12-08 14:04:00
8:49 AM,64.4,62.6,94,30.02,5.0,East,4.6,-,N/A,,Overcast,100,2012-12-08 14:49:00
8:56 AM,64.9,61.0,87,29.99,5.0,ESE,3.5,-,N/A,,Overcast,110,2012-12-08 14:56:00
9:56 AM,69.1,62.1,78,29.97,9.0,SE,4.6,-,N/A,,Overcast,140,2012-12-08 15:56:00
10:43 AM,71.6,62.6,73,30.01,10.0,SE,6.9,-,N/A,,Mostly Cloudy,130,2012-12-08 16:43:00
10:56 AM,73.0,63.0,71,29.97,10.0,ESE,4.6,-,N/A,,Mostly Cloudy,110,2012-12-08 16:56:00
11:34 AM,75.2,62.6,65,29.98,10.0,Variable,4.6,-,N/A,,Mostly Cloudy,0,2012-12-08 17:34:00
11:44 AM,73.4,60.8,65,29.98,10.0,SSW,4.6,-,N/A,,Scattered Clouds,210,2012-12-08 17:44:00
11:56 AM,75.0,61.0,62,29.94,10.0,SSW,3.5,-,N/A,,Mostly Cloudy,200,2012-12-08 17:56:00
12:10 PM,75.2,60.8,61,29.96,10.0,South,5.8,-,N/A,,Mostly Cloudy,180,2012-12-08 18:10:00
12:24 PM,75.2,60.8,61,29.96,10.0,Calm,Calm,-,N/A,,Mostly Cloudy,0,2012-12-08 18:24:00
12:47 PM,78.8,57.2,47,29.96,10.0,WSW,5.8,-,N/A,,Scattered Clouds,240,2012-12-08 18:47:00
12:56 PM,75.0,59.0,57,29.91,10.0,SW,3.5,-,N/A,,Partly Cloudy,230,2012-12-08 18:56:00
1:56 PM,77.0,59.0,54,29.90,10.0,South,5.8,-,0.00,,Scattered Clouds,180,2012-12-08 19:56:00
2:56 PM,75.9,60.1,58,29.91,10.0,South,9.2,-,N/A,,Partly Cloudy,180,2012-12-08 20:56:00
3:56 PM,73.9,60.1,62,29.91,10.0,South,9.2,-,N/A,,Scattered Clouds,190,2012-12-08 21:56:00
4:56 PM,70.0,62.1,76,29.93,10.0,South,6.9,-,N/A,,Clear,190,2012-12-08 22:56:00
5:56 PM,66.0,59.0,78,29.94,10.0,Calm,Calm,-,N/A,,Clear,0,2012-12-08 23:56:00
6:56 PM,63.0,57.9,84,29.96,10.0,Calm,Calm,-,N/A,,Clear,0,2012-12-09 00:56:00
7:39 PM,62.6,57.2,82,30.00,10.0,Calm,Calm,-,N/A,,Mostly Cloudy,0,2012-12-09 01:39:00
7:56 PM,64.0,60.1,87,29.97,10.0,Calm,Calm,-,N/A,,Overcast,0,2012-12-09 01:56:00
8:38 PM,62.6,59.0,88,30.02,9.0,Calm,Calm,-,N/A,,Scattered Clouds,0,2012-12-09 02:38:00
8:56 PM,64.0,60.1,87,29.98,10.0,South,3.5,-,N/A,,Mostly Cloudy,170,2012-12-09 02:56:00
9:42 PM,60.8,57.2,88,30.02,1.8,SSE,3.5,-,N/A,,Clear,150,2012-12-09 03:42:00
9:56 PM,61.0,57.0,87,29.99,0.8,Calm,Calm,-,N/A,,Clear,0,2012-12-09 03:56:00
10:06 PM,60.8,57.2,88,30.03,0.2,Calm,Calm,-,N/A,Fog,Fog,0,2012-12-09 04:06:00
10:13 PM,62.6,57.2,82,30.02,0.2,ESE,3.5,-,N/A,,Haze,110,2012-12-09 04:13:00
10:56 PM,59.0,55.0,87,29.98,0.2,Calm,Calm,-,N/A,Fog,Fog,0,2012-12-09 04:56:00
11:46 PM,57.2,53.6,88,30.02,1.0,Calm,Calm,-,N/A,,Mist,0,2012-12-09 05:46:00
11:56 PM,57.9,54.0,87,29.97,2.0,Calm,Calm,-,N/A,,Clear,0,2012-12-09 05:56:00